Time;durP1;ratioP1;P1;durP2;ratioP2;P2;SDS_P1;SDS_P2;PMS_P1;PMS_P2;Temp;Humidity;BMP_temperature;BMP_pressure;BME280_temperature;BME280_humidity;BME280_pressure;Samples;Min_cycle;Max_cycle;Signal;HPM_P1;HPM_P2
2023/08/15 00:02:13;;;;;;;;;;;;;;;21.27;79.84;101153.03;5061908;28;19919;-59
2023/08/15 00:04:38;;;;;;;;;;;;;;;21.25;79.87;101154.84;5063679;28;20154;-59
2023/08/15 00:07:04;;;;;;;;;;;;;;;21.24;79.75;101148.66;5055246;28;19921;-59
2023/08/15 00:09:30;;;;;;;;;;;;;;;21.17;80.04;101144.34;5058639;28;19909;-59
2023/08/15 00:11:55;;;;;;;;;;;;;;;21.09;80.81;101131.22;5058287;28;20099;-59
2023/08/15 00:14:20;;;;;;;;;;;;;;;20.98;80.58;101128.72;5063990;28;19960;-59
2023/08/15 00:16:45;;;;;;;;;;;;;;;20.92;81.30;101126.19;5063850;28;19916;-59
2023/08/15 00:19:10;;;;;;;;;;;;;;;20.87;81.52;101120.09;5057253;28;19904;-59
2023/08/15 00:21:35;;;;;;;;;;;;;;;20.77;81.84;101124.63;5060812;28;19909;-59
2023/08/15 00:24:01;;;;;;;;;;;;;;;20.63;82.77;101130.09;5062772;28;19970;-59
2023/08/15 00:26:26;;;;;;;;;;;;;;;20.49;82.44;101121.44;5059326;28;19971;-59
2023/08/15 00:28:51;;;;;;;;;;;;;;;20.43;83.74;101130.34;5050101;28;19916;-59
2023/08/15 00:31:16;;;;;;;;;;;;;;;20.50;83.31;101137.31;5059318;28;20089;-59
2023/08/15 00:33:41;;;;;;;;;;;;;;;20.59;82.27;101146.91;5064094;28;19976;-59
2023/08/15 00:36:08;;;;;;;;;;;;;;;20.57;82.44;101140.75;5062509;28;19931;-59
2023/08/15 00:38:33;;;;;;;;;;;;;;;20.59;82.57;101144.25;5057646;28;20050;-59
2023/08/15 00:40:58;;;;;;;;;;;;;;;20.65;82.50;101144.19;5045879;28;20162;-59
2023/08/15 00:43:23;;;;;;;;;;;;;;;20.67;81.80;101145.06;5062828;28;20031;-59
2023/08/15 00:45:48;;;;;;;;;;;;;;;20.61;81.83;101150.44;5059561;28;19956;-59
2023/08/15 00:48:15;;;;;;;;;;;;;;;20.59;82.54;101154.84;5064601;28;19948;-59
2023/08/15 00:50:41;;;;;;;;;;;;;;;20.60;82.19;101153.97;5059519;28;19951;-59
2023/08/15 00:53:07;;;;;;;;;;;;;;;20.59;82.08;101162.78;5056267;28;20139;-59
2023/08/15 00:55:33;;;;;;;;;;;;;;;20.58;81.93;101161.06;5053224;28;19944;-59
2023/08/15 00:57:58;;;;;;;;;;;;;;;20.50;81.66;101162.91;5044741;28;19967;-59
2023/08/15 01:00:23;;;;;;;;;;;;;;;20.45;82.15;101162.97;5059551;28;19908;-59
2023/08/15 01:02:49;;;;;;;;;;;;;;;20.36;82.32;101162.22;5062583;28;20058;-59
2023/08/15 01:05:16;;;;;;;;;;;;;;;20.23;84.46;101167.63;5053477;28;19909;-59
2023/08/15 01:07:42;;;;;;;;;;;;;;;20.07;84.62;101155.47;5060388;28;19928;-60
2023/08/15 01:10:07;;;;;;;;;;;;;;;20.02;85.22;101154.66;5061802;28;19913;-59
2023/08/15 01:12:52;;;;;;;;;;;;;;;19.89;84.14;101154.78;5063580;28;19932;-59
2023/08/15 01:15:25;;;;;;;;;;;;;;;19.81;84.06;101156.59;5056170;28;19909;-59
2023/08/15 01:17:57;;;;;;;;;;;;;;;19.83;84.32;101149.56;5058278;28;19908;-59
2023/08/15 01:20:27;;;;;;;;;;;;;;;19.81;84.92;101148.69;5057560;28;19968;-59
2023/08/15 01:22:53;;;;;;;;;;;;;;;19.71;84.66;101149.63;5044728;28;19967;-59
2023/08/15 01:25:18;;;;;;;;;;;;;;;19.62;84.75;101150.59;5049311;28;19929;-59
2023/08/15 01:27:43;;;;;;;;;;;;;;;19.53;84.79;101148.03;5050650;28;19909;-59
2023/08/15 01:30:09;;;;;;;;;;;;;;;19.40;85.22;101142.84;5057725;28;19921;-59
2023/08/15 01:32:39;;;;;;;;;;;;;;;19.28;84.32;101142.97;5058878;28;19915;-59
2023/08/15 01:35:19;;;;;;;;;;;;;;;19.19;84.54;101151.84;5055745;28;20085;-58
2023/08/15 01:37:47;;;;;;;;;;;;;;;19.18;85.10;101165.91;5062949;28;19975;-59
2023/08/15 01:40:15;;;;;;;;;;;;;;;19.14;84.53;101180.03;5061842;28;19926;-59
2023/08/15 01:42:40;;;;;;;;;;;;;;;19.17;84.56;101184.44;5058243;28;19909;-59
2023/08/15 01:45:06;;;;;;;;;;;;;;;19.17;84.29;101187.06;5058914;28;19908;-59
2023/08/15 01:47:34;;;;;;;;;;;;;;;19.19;83.47;101190.56;5062832;28;20165;-59
2023/08/15 01:50:00;;;;;;;;;;;;;;;19.21;83.52;101194.94;5057782;28;19916;-59
2023/08/15 01:52:25;;;;;;;;;;;;;;;19.27;83.07;101196.69;5057112;28;19909;-59
2023/08/15 01:54:50;;;;;;;;;;;;;;;19.27;83.29;101205.47;5060536;28;19909;-59
2023/08/15 01:57:15;;;;;;;;;;;;;;;19.26;83.22;101206.38;5053344;28;19915;-59
2023/08/15 01:59:43;;;;;;;;;;;;;;;19.24;83.00;101209.91;5060847;28;19909;-59
2023/08/15 02:02:08;;;;;;;;;;;;;;;19.21;83.18;101215.22;5062231;28;19916;-59
2023/08/15 02:04:34;;;;;;;;;;;;;;;19.19;83.06;101209.94;5059130;28;19908;-59
2023/08/15 02:06:59;;;;;;;;;;;;;;;19.20;82.74;101210.81;5046992;28;19909;-59
2023/08/15 02:09:24;;;;;;;;;;;;;;;19.21;82.72;101213.44;5049066;28;20003;-59
2023/08/15 02:11:50;;;;;;;;;;;;;;;19.23;82.92;101221.34;5053239;28;20241;-59
2023/08/15 02:14:15;;;;;;;;;;;;;;;19.23;82.86;101222.25;5061431;28;19967;-59
2023/08/15 02:16:40;;;;;;;;;;;;;;;19.25;82.67;101233.69;5061969;28;19992;-59
2023/08/15 02:19:05;;;;;;;;;;;;;;;19.23;83.04;101231.94;5050415;28;19916;-59
2023/08/15 02:21:30;;;;;;;;;;;;;;;19.19;83.19;101241.66;5058528;28;19923;-59
2023/08/15 02:23:56;;;;;;;;;;;;;;;19.20;83.07;101243.38;5038643;28;19909;-59
2023/08/15 02:26:21;;;;;;;;;;;;;;;19.25;82.75;101240.75;5057402;28;19916;-59
2023/08/15 02:28:46;;;;;;;;;;;;;;;19.21;83.36;101239.00;5046217;28;19909;-59
2023/08/15 02:31:12;;;;;;;;;;;;;;;19.09;83.17;101239.94;5058105;28;20058;-59
2023/08/15 02:33:37;;;;;;;;;;;;;;;19.04;83.43;101241.72;5058006;28;19939;-59
2023/08/15 02:36:06;;;;;;;;;;;;;;;19.11;83.21;101243.44;5058665;28;19928;-59
2023/08/15 02:38:32;;;;;;;;;;;;;;;19.15;82.90;101244.28;5058201;28;19909;-59
2023/08/15 02:40:57;;;;;;;;;;;;;;;19.15;83.04;101244.28;5061016;28;19919;-59
2023/08/15 02:43:22;;;;;;;;;;;;;;;19.17;82.99;101242.53;5043962;28;19913;-59
2023/08/15 02:45:48;;;;;;;;;;;;;;;19.11;83.55;101227.59;5062738;28;19924;-59
2023/08/15 02:48:13;;;;;;;;;;;;;;;19.04;83.45;101225.88;5059077;28;20070;-59
2023/08/15 02:50:38;;;;;;;;;;;;;;;19.07;82.89;101223.22;5055907;28;19951;-58
2023/08/15 02:53:03;;;;;;;;;;;;;;;19.06;83.27;101226.72;5054520;28;19975;-59
2023/08/15 02:55:28;;;;;;;;;;;;;;;19.05;83.01;101230.28;5061280;28;20182;-59
2023/08/15 02:57:53;;;;;;;;;;;;;;;19.01;83.32;101231.19;5061798;28;19955;-59
2023/08/15 03:00:19;;;;;;;;;;;;;;;18.94;83.71;101225.94;5058107;28;19916;-58
2023/08/15 03:02:44;;;;;;;;;;;;;;;18.87;84.99;101224.22;5061879;28;19909;-59
2023/08/15 03:05:09;;;;;;;;;;;;;;;18.72;84.90;101234.78;5057143;28;19915;-59
2023/08/15 03:07:34;;;;;;;;;;;;;;;18.62;84.78;101238.34;5059771;28;19968;-59
2023/08/15 03:10:05;;;;;;;;;;;;;;;18.63;85.19;101227.78;5064386;28;19950;-58
2023/08/15 03:15:55;;;;;;;;;;;;;;;18.65;84.91;101222.50;5049256;28;20058;-58
2023/08/15 03:18:20;;;;;;;;;;;;;;;18.71;84.60;101222.47;5065637;28;19915;-59
2023/08/15 03:21:02;;;;;;;;;;;;;;;18.77;84.80;101228.63;5064207;28;19921;-59
2023/08/15 03:23:27;;;;;;;;;;;;;;;18.82;84.35;101230.38;5066027;28;19976;-59
2023/08/15 03:26:00;;;;;;;;;;;;;;;18.77;84.45;101231.25;5065159;28;19908;-59
2023/08/15 03:28:25;;;;;;;;;;;;;;;18.71;84.98;101238.31;5059460;28;19916;-59
2023/08/15 03:30:51;;;;;;;;;;;;;;;18.68;84.62;101230.41;5065770;28;19908;-59
2023/08/15 03:33:16;;;;;;;;;;;;;;;18.60;85.33;101231.31;5062970;28;19956;-59
2023/08/15 03:35:48;;;;;;;;;;;;;;;18.63;85.35;101234.84;5066000;28;19909;-59
2023/08/15 03:38:19;;;;;;;;;;;;;;;18.72;85.17;101237.44;5060331;28;19932;-59
2023/08/15 03:40:46;;;;;;;;;;;;;;;18.67;85.02;101241.84;5063977;28;19915;-59
2023/08/15 03:43:12;;;;;;;;;;;;;;;18.64;85.59;101244.50;5060824;28;19932;-58
2023/08/15 03:45:38;;;;;;;;;;;;;;;18.62;85.68;101241.84;5063389;28;20146;-59
2023/08/15 03:48:06;;;;;;;;;;;;;;;18.66;85.56;101251.53;5065140;28;19908;-58
2023/08/15 03:50:32;;;;;;;;;;;;;;;18.67;85.37;101242.72;5063710;28;20121;-59
2023/08/15 03:52:57;;;;;;;;;;;;;;;18.73;85.38;101257.69;5063569;28;20165;-58
2023/08/15 03:55:22;;;;;;;;;;;;;;;18.78;85.25;101261.16;5064030;28;19916;-58
2023/08/15 03:57:48;;;;;;;;;;;;;;;18.81;85.22;101262.91;5063401;28;19909;-59
2023/08/15 04:00:13;;;;;;;;;;;;;;;18.79;85.26;101249.72;5065118;28;19904;-58
2023/08/15 04:02:40;;;;;;;;;;;;;;;18.78;85.17;101253.25;5034315;28;19908;-58
2023/08/15 04:05:05;;;;;;;;;;;;;;;18.76;84.24;101250.59;5063687;28;19915;-58
2023/08/15 04:07:30;;;;;;;;;;;;;;;18.68;84.77;101252.38;5061991;28;19991;-59
2023/08/15 04:09:55;;;;;;;;;;;;;;;18.64;84.96;101248.03;5065600;28;19904;-58
2023/08/15 04:12:20;;;;;;;;;;;;;;;18.59;85.32;101249.78;5063173;28;19944;-58
2023/08/15 04:14:46;;;;;;;;;;;;;;;18.59;85.42;101245.38;5050193;28;19920;-58
2023/08/15 04:17:11;;;;;;;;;;;;;;;18.59;85.96;101250.66;5060084;28;19912;-59
2023/08/15 04:19:36;;;;;;;;;;;;;;;18.50;85.80;101237.50;5053836;28;20273;-58
2023/08/15 04:22:01;;;;;;;;;;;;;;;18.42;85.75;101240.19;5057560;28;20174;-59
2023/08/15 04:24:26;;;;;;;;;;;;;;;18.41;85.76;101235.78;5062031;28;19936;-58
2023/08/15 04:26:55;;;;;;;;;;;;;;;18.39;86.42;101236.66;5060973;28;19979;-59
2023/08/15 04:29:20;;;;;;;;;;;;;;;18.39;86.30;101236.66;5062890;28;20143;-59
2023/08/15 04:31:45;;;;;;;;;;;;;;;18.39;86.01;101244.56;5056527;28;19908;-58
2023/08/15 04:34:10;;;;;;;;;;;;;;;18.34;86.31;101249.00;5057127;28;19909;-58
2023/08/15 04:36:35;;;;;;;;;;;;;;;18.29;86.02;101246.34;5053037;28;20162;-58
2023/08/15 04:39:02;;;;;;;;;;;;;;;18.28;86.68;101265.72;5062665;28;19972;-58
2023/08/15 04:41:27;;;;;;;;;;;;;;;18.30;86.69;101253.38;5047294;28;19936;-58
2023/08/15 04:43:53;;;;;;;;;;;;;;;18.28;86.29;101259.53;5062128;28;19920;-58
2023/08/15 04:46:19;;;;;;;;;;;;;;;18.28;86.25;101275.34;5063667;28;19904;-58
2023/08/15 04:48:44;;;;;;;;;;;;;;;18.24;86.40;101270.09;5053606;28;19916;-58
2023/08/15 04:51:10;;;;;;;;;;;;;;;18.24;86.88;101269.22;5053210;28;19904;-58
2023/08/15 04:53:35;;;;;;;;;;;;;;;18.23;87.34;101272.72;5063306;28;19913;-60
2023/08/15 04:56:01;;;;;;;;;;;;;;;18.22;86.63;101282.41;5057654;28;19962;-58
2023/08/15 04:58:26;;;;;;;;;;;;;;;18.17;86.97;101289.44;5047079;28;19916;-58
2023/08/15 05:00:51;;;;;;;;;;;;;;;18.15;87.78;101293.84;5049433;28;19904;-58
2023/08/15 05:03:16;;;;;;;;;;;;;;;18.11;87.23;101299.13;5050330;28;19915;-58
2023/08/15 05:05:41;;;;;;;;;;;;;;;18.09;86.86;101309.69;5061148;28;19911;-58
2023/08/15 05:08:06;;;;;;;;;;;;;;;18.10;87.42;101311.41;5061815;28;20147;-58
2023/08/15 05:10:32;;;;;;;;;;;;;;;18.13;87.01;101319.34;5036223;28;19913;-58
2023/08/15 05:12:59;;;;;;;;;;;;;;;18.11;86.79;101320.22;5057901;28;19909;-58
2023/08/15 05:15:24;;;;;;;;;;;;;;;17.97;87.42;101328.13;5062147;28;20074;-58
2023/08/15 05:17:50;;;;;;;;;;;;;;;17.88;87.87;101332.47;5052056;28;19909;-59
2023/08/15 05:20:15;;;;;;;;;;;;;;;17.85;88.26;101335.09;5049849;28;20135;-58
2023/08/15 05:22:40;;;;;;;;;;;;;;;17.83;88.24;101336.88;5056582;28;19908;-58
2023/08/15 05:25:06;;;;;;;;;;;;;;;17.84;88.51;101349.19;5056847;28;20201;-58
2023/08/15 05:27:31;;;;;;;;;;;;;;;17.86;88.94;101346.56;5060510;28;19944;-59
2023/08/15 05:29:56;;;;;;;;;;;;;;;17.86;88.53;101352.69;5063018;28;19912;-58
2023/08/15 05:32:21;;;;;;;;;;;;;;;17.90;88.51;101356.22;5061834;28;19921;-59
2023/08/15 05:34:47;;;;;;;;;;;;;;;17.94;88.58;101359.75;5050039;28;20075;-58
2023/08/15 05:37:12;;;;;;;;;;;;;;;17.96;89.08;101347.44;5057501;28;20180;-58
2023/08/15 05:39:38;;;;;;;;;;;;;;;17.92;89.98;101345.72;5058766;28;19908;-58
2023/08/15 05:42:03;;;;;;;;;;;;;;;17.92;89.43;101340.44;5063688;28;19912;-58
2023/08/15 05:44:28;;;;;;;;;;;;;;;17.96;88.80;101336.91;5061712;28;20127;-58
2023/08/15 05:46:53;;;;;;;;;;;;;;;17.96;89.02;101336.91;5048865;28;20116;-58
2023/08/15 05:49:18;;;;;;;;;;;;;;;17.96;88.39;101342.19;5057437;28;20154;-58
2023/08/15 05:51:44;;;;;;;;;;;;;;;17.96;89.36;101353.63;5063135;28;20158;-59
2023/08/15 05:54:09;;;;;;;;;;;;;;;17.96;89.47;101361.53;5061778;28;19924;-59
2023/08/15 05:56:34;;;;;;;;;;;;;;;18.01;88.77;101366.81;5062511;28;19966;-59
2023/08/15 05:58:59;;;;;;;;;;;;;;;18.01;89.72;101361.53;5057860;28;19912;-58
2023/08/15 06:01:24;;;;;;;;;;;;;;;18.06;89.50;101365.03;5061843;28;20143;-58
2023/08/15 06:03:51;;;;;;;;;;;;;;;18.10;89.54;101365.94;5054267;28;19909;-58
2023/08/15 06:06:16;;;;;;;;;;;;;;;18.15;89.77;101367.69;5062012;28;20066;-59
2023/08/15 06:08:41;;;;;;;;;;;;;;;18.17;89.79;101363.28;5058086;28;19909;-59
2023/08/15 06:11:07;;;;;;;;;;;;;;;18.15;90.33;101375.63;5060535;28;19929;-58
2023/08/15 06:13:32;;;;;;;;;;;;;;;18.14;90.24;101384.41;5058379;28;19917;-59
2023/08/15 06:15:57;;;;;;;;;;;;;;;18.14;90.29;101389.66;5061821;28;20054;-59
2023/08/15 06:18:22;;;;;;;;;;;;;;;18.18;90.83;101402.00;5059773;28;20031;-59
2023/08/15 06:20:49;;;;;;;;;;;;;;;18.19;90.36;101394.94;5061864;28;19915;-59
2023/08/15 06:23:14;;;;;;;;;;;;;;;18.22;89.79;101398.47;5061908;28;19912;-59
2023/08/15 06:25:40;;;;;;;;;;;;;;;18.25;90.11;101394.97;5052842;28;20110;-59
2023/08/15 06:28:06;;;;;;;;;;;;;;;18.29;90.10;101388.78;5043758;28;19924;-59
2023/08/15 06:30:31;;;;;;;;;;;;;;;18.35;90.65;101393.19;5060795;28;20206;-59
2023/08/15 06:32:56;;;;;;;;;;;;;;;18.42;90.40;101400.22;5061840;28;19915;-59
2023/08/15 06:35:27;;;;;;;;;;;;;;;18.45;90.94;101400.25;5059695;28;19916;-58
2023/08/15 06:37:52;;;;;;;;;;;;;;;18.47;90.33;101398.47;5061373;28;19909;-59
2023/08/15 06:40:17;;;;;;;;;;;;;;;18.50;90.65;101406.41;5053351;28;19917;-59
2023/08/15 06:42:43;;;;;;;;;;;;;;;18.53;91.10;101403.75;5055124;28;19924;-59
2023/08/15 06:45:11;;;;;;;;;;;;;;;18.55;91.25;101406.38;5066446;28;19999;-59
2023/08/15 06:47:36;;;;;;;;;;;;;;;18.61;90.70;101411.69;5065384;28;20166;-59
2023/08/15 06:50:01;;;;;;;;;;;;;;;18.67;90.77;101406.41;5063846;28;19940;-59
2023/08/15 06:52:26;;;;;;;;;;;;;;;18.71;91.19;101412.53;5056807;28;19951;-59
2023/08/15 06:54:53;;;;;;;;;;;;;;;18.76;92.53;101416.06;5060878;28;19924;-59
2023/08/15 06:57:18;;;;;;;;;;;;;;;18.80;91.92;101407.25;5057651;28;19915;-59
2023/08/15 06:59:43;;;;;;;;;;;;;;;18.86;91.51;101406.38;5065618;28;19909;-59
2023/08/15 07:02:08;;;;;;;;;;;;;;;18.91;91.56;101413.41;5063426;28;19916;-59
2023/08/15 07:04:36;;;;;;;;;;;;;;;19.01;92.75;101405.50;5061870;28;19908;-59
2023/08/15 07:07:02;;;;;;;;;;;;;;;19.08;92.15;101408.09;5062669;28;19915;-59
2023/08/15 07:09:29;;;;;;;;;;;;;;;19.12;92.36;101411.63;5058530;28;19909;-59
2023/08/15 07:11:55;;;;;;;;;;;;;;;19.17;91.97;101412.47;5063346;28;19916;-59
2023/08/15 07:14:20;;;;;;;;;;;;;;;19.21;92.00;101411.59;5061901;28;19979;-59
2023/08/15 07:16:46;;;;;;;;;;;;;;;19.28;92.29;101415.09;5056625;28;19920;-59
2023/08/15 07:19:12;;;;;;;;;;;;;;;19.28;91.80;101410.69;5059542;28;19971;-59
2023/08/15 07:21:37;;;;;;;;;;;;;;;19.29;92.00;101417.75;5063219;28;19916;-59
2023/08/15 07:24:02;;;;;;;;;;;;;;;19.37;92.03;101415.06;5059343;28;20033;-59
2023/08/15 07:26:29;;;;;;;;;;;;;;;19.41;91.39;101424.75;5054151;28;19909;-59
2023/08/15 07:28:54;;;;;;;;;;;;;;;19.46;91.52;101430.00;5048080;28;19915;-59
2023/08/15 07:31:19;;;;;;;;;;;;;;;19.52;90.74;101432.63;5065286;28;19908;-59
2023/08/15 07:33:44;;;;;;;;;;;;;;;19.64;92.76;101429.94;5059816;28;20066;-59
2023/08/15 07:36:09;;;;;;;;;;;;;;;19.64;91.39;101437.00;5065572;28;19954;-59
2023/08/15 07:38:34;;;;;;;;;;;;;;;19.68;91.56;101435.19;5065928;28;19942;-59
2023/08/15 07:41:00;;;;;;;;;;;;;;;19.69;91.41;101443.13;5065996;28;20108;-59
2023/08/15 07:43:25;;;;;;;;;;;;;;;19.73;91.22;101433.44;5064043;28;19905;-59
2023/08/15 07:45:50;;;;;;;;;;;;;;;19.80;90.70;101453.69;5062947;28;19915;-59
2023/08/15 07:48:16;;;;;;;;;;;;;;;19.78;90.26;101443.13;5064135;28;19947;-59
2023/08/15 07:50:41;;;;;;;;;;;;;;;19.81;90.34;101444.84;5064937;28;19925;-59
2023/08/15 07:53:06;;;;;;;;;;;;;;;19.79;90.18;101439.56;5061446;28;19911;-59
2023/08/15 07:55:32;;;;;;;;;;;;;;;19.82;89.55;101443.97;5061662;28;19931;-59
2023/08/15 07:57:58;;;;;;;;;;;;;;;19.87;89.56;101447.50;5054559;28;19909;-59
2023/08/15 08:00:23;;;;;;;;;;;;;;;19.92;89.69;101448.31;5060519;28;19939;-59
2023/08/15 08:02:48;;;;;;;;;;;;;;;20.04;89.94;101449.16;5041774;28;19924;-62
2023/08/15 08:05:16;;;;;;;;;;;;;;;20.15;89.45;101464.06;5059218;28;19909;-62
2023/08/15 08:07:42;;;;;;;;;;;;;;;20.28;89.51;101458.72;5061816;28;20081;-62
2023/08/15 08:10:07;;;;;;;;;;;;;;;20.35;89.08;101454.22;5058063;28;19904;-60
2023/08/15 08:12:33;;;;;;;;;;;;;;;20.40;89.08;101457.72;5062758;28;20177;-60
2023/08/15 08:14:58;;;;;;;;;;;;;;;20.47;88.86;101452.38;5063964;28;20134;-60
2023/08/15 08:17:23;;;;;;;;;;;;;;;20.51;88.62;101453.25;5060831;28;20173;-60
2023/08/15 08:19:48;;;;;;;;;;;;;;;20.63;88.61;101457.56;5058618;28;19933;-60
2023/08/15 08:22:14;;;;;;;;;;;;;;;20.70;88.36;101453.09;5056472;28;19950;-60
2023/08/15 08:24:39;;;;;;;;;;;;;;;20.77;88.18;101454.78;5061294;28;20039;-60
2023/08/15 08:27:04;;;;;;;;;;;;;;;20.87;87.55;101459.16;5062054;28;19912;-60
2023/08/15 08:29:29;;;;;;;;;;;;;;;20.99;86.53;101458.16;5056093;28;19909;-60
2023/08/15 08:31:55;;;;;;;;;;;;;;;20.96;87.09;101458.19;5063671;28;19909;-60
2023/08/15 08:34:21;;;;;;;;;;;;;;;21.01;87.17;101461.66;5052875;28;19913;-60
2023/08/15 08:36:46;;;;;;;;;;;;;;;21.10;86.12;101460.66;5055556;28;19909;-60
2023/08/15 08:39:11;;;;;;;;;;;;;;;21.11;85.37;101462.44;5062836;28;19951;-60
2023/08/15 08:41:37;;;;;;;;;;;;;;;21.12;85.95;101457.13;5047013;28;19975;-60
2023/08/15 08:44:02;;;;;;;;;;;;;;;21.18;85.82;101462.34;5049585;28;19916;-60
2023/08/15 08:46:28;;;;;;;;;;;;;;;21.19;85.50;101460.59;5044988;28;19905;-60
2023/08/15 08:48:57;;;;;;;;;;;;;;;21.11;85.08;101467.75;5044824;28;20201;-60
2023/08/15 08:51:23;;;;;;;;;;;;;;;21.06;85.76;101466.88;5044606;28;19932;-60
2023/08/15 08:53:48;;;;;;;;;;;;;;;21.06;85.97;101469.53;5054500;28;19908;-60
2023/08/15 08:56:14;;;;;;;;;;;;;;;21.15;85.90;101470.34;5063713;28;19916;-61
2023/08/15 08:58:40;;;;;;;;;;;;;;;21.27;86.26;101465.81;5044636;28;19905;-60
2023/08/15 09:01:06;;;;;;;;;;;;;;;21.39;85.94;101464.78;5044424;28;19951;-60
2023/08/15 09:03:31;;;;;;;;;;;;;;;21.53;85.03;101481.44;5054240;28;19928;-60
2023/08/15 09:05:57;;;;;;;;;;;;;;;21.67;84.77;101476.84;5053815;28;20088;-60
2023/08/15 09:08:22;;;;;;;;;;;;;;;21.79;84.39;101467.00;5060642;28;19908;-60
2023/08/15 09:10:47;;;;;;;;;;;;;;;21.92;83.64;101467.69;5059061;28;19921;-61
2023/08/15 09:13:20;;;;;;;;;;;;;;;21.96;83.70;101478.25;5048942;28;19920;-60
2023/08/15 09:15:49;;;;;;;;;;;;;;;21.97;83.95;101476.47;5049891;28;19909;-61
2023/08/15 09:18:14;;;;;;;;;;;;;;;21.98;84.24;101473.78;5061353;28;19920;-61
2023/08/15 09:20:48;;;;;;;;;;;;;;;22.13;83.71;101483.31;5044302;28;19905;-61
2023/08/15 09:23:14;;;;;;;;;;;;;;;22.18;83.89;101470.84;5043868;28;19906;-61
2023/08/15 09:25:39;;;;;;;;;;;;;;;22.28;81.45;101474.25;5055367;28;19909;-61
2023/08/15 09:28:05;;;;;;;;;;;;;;;22.20;81.50;101481.44;5047690;28;19912;-60
2023/08/15 09:30:30;;;;;;;;;;;;;;;22.22;82.57;101482.31;5043953;28;19905;-61
2023/08/15 09:32:56;;;;;;;;;;;;;;;22.37;81.61;101491.84;5043815;28;19905;-61
2023/08/15 09:35:22;;;;;;;;;;;;;;;22.54;81.67;101492.47;5043748;28;19980;-61
2023/08/15 09:37:48;;;;;;;;;;;;;;;22.74;81.64;101491.28;5050734;28;19909;-61
2023/08/15 09:40:23;;;;;;;;;;;;;;;23.01;81.59;101486.38;5021825;28;20090;-61
2023/08/15 09:42:48;;;;;;;;;;;;;;;23.23;78.54;101487.78;5050721;28;19905;-61
2023/08/15 09:45:14;;;;;;;;;;;;;;;23.31;76.71;101490.28;5043548;28;19964;-61
2023/08/15 09:47:40;;;;;;;;;;;;;;;23.11;78.09;101498.63;5043545;28;20024;-61
2023/08/15 09:50:07;;;;;;;;;;;;;;;23.09;76.35;101495.97;5061304;28;19932;-61
2023/08/15 09:52:52;;;;;;;;;;;;;;;22.91;76.66;101493.63;5059035;28;20093;-61
2023/08/15 09:55:18;;;;;;;;;;;;;;;22.78;77.93;101498.25;5051802;28;19909;-61
2023/08/15 09:57:43;;;;;;;;;;;;;;;22.70;77.25;101506.38;5043701;28;19971;-61
2023/08/15 10:00:11;;;;;;;;;;;;;;;22.57;78.04;101505.69;5043639;28;19947;-61
2023/08/15 10:02:43;;;;;;;;;;;;;;;22.55;77.57;101512.81;5043308;28;19905;-61
2023/08/15 10:05:11;;;;;;;;;;;;;;;22.57;77.38;101515.44;5051249;28;19918;-61
2023/08/15 10:07:40;;;;;;;;;;;;;;;22.56;77.67;101517.25;5061719;28;19948;-61
2023/08/15 10:10:05;;;;;;;;;;;;;;;22.62;77.27;101526.88;5043312;28;19905;-61
2023/08/15 10:12:31;;;;;;;;;;;;;;;22.79;77.31;101531.06;5043317;28;19947;-61
2023/08/15 10:14:58;;;;;;;;;;;;;;;22.91;77.89;101521.09;5057166;28;19909;-61
2023/08/15 10:17:28;;;;;;;;;;;;;;;23.21;78.73;101517.94;5050050;28;19940;-61
2023/08/15 10:19:54;;;;;;;;;;;;;;;23.48;77.67;101516.56;5052114;28;19929;-61
2023/08/15 10:22:19;;;;;;;;;;;;;;;23.66;76.40;101525.06;5060555;28;19908;-61
2023/08/15 10:24:44;;;;;;;;;;;;;;;23.75;75.17;101524.88;5036076;28;20066;-61
2023/08/15 10:27:10;;;;;;;;;;;;;;;23.86;73.36;101516.69;5058219;28;20135;-61
2023/08/15 10:29:54;;;;;;;;;;;;;;;23.95;73.40;101524.50;5061562;28;19925;-60
2023/08/15 10:32:26;;;;;;;;;;;;;;;24.11;71.58;101533.91;5056321;28;19943;-61
2023/08/15 10:34:52;;;;;;;;;;;;;;;24.17;70.93;101532.00;5053598;28;19932;-61
2023/08/15 10:37:28;;;;;;;;;;;;;;;24.19;69.47;101535.50;5062580;28;19986;-61
2023/08/15 10:40:07;;;;;;;;;;;;;;;24.15;71.77;101529.38;5050605;28;19913;-61
2023/08/15 10:42:52;;;;;;;;;;;;;;;24.24;72.37;101538.97;5061016;28;19952;-61
2023/08/15 10:45:19;;;;;;;;;;;;;;;24.43;72.41;101534.09;5061352;28;19924;-61
2023/08/15 10:47:45;;;;;;;;;;;;;;;24.53;71.46;101522.28;5059127;28;20138;-61
2023/08/15 10:50:11;;;;;;;;;;;;;;;24.60;71.81;101529.25;5060708;28;19917;-61
2023/08/15 10:52:38;;;;;;;;;;;;;;;24.68;70.38;101538.84;5061443;28;19917;-61
2023/08/15 10:55:04;;;;;;;;;;;;;;;24.74;68.73;101528.94;5061094;28;19920;-61
2023/08/15 10:57:32;;;;;;;;;;;;;;;24.52;69.99;101528.56;5061969;28;19954;-62
2023/08/15 10:59:57;;;;;;;;;;;;;;;24.50;70.61;101525.03;5061615;28;19915;-61
2023/08/15 11:02:22;;;;;;;;;;;;;;;24.51;69.92;101532.13;5060085;28;19940;-62
2023/08/15 11:04:48;;;;;;;;;;;;;;;24.44;70.37;101534.03;5059616;28;19908;-62
2023/08/15 11:07:23;;;;;;;;;;;;;;;24.35;70.53;101531.59;5058803;28;19928;-61
2023/08/15 11:09:49;;;;;;;;;;;;;;;24.31;71.67;101535.25;5060078;28;19988;-61
2023/08/15 11:12:15;;;;;;;;;;;;;;;24.36;71.58;101529.81;5060653;28;19928;-61
2023/08/15 11:14:40;;;;;;;;;;;;;;;24.67;72.29;101521.13;5061090;28;19988;-61
2023/08/15 11:17:06;;;;;;;;;;;;;;;24.98;71.83;101523.88;5062170;28;19912;-61
2023/08/15 11:19:32;;;;;;;;;;;;;;;25.24;70.61;101527.66;5059341;28;19974;-61
2023/08/15 11:21:58;;;;;;;;;;;;;;;25.50;70.02;101533.19;5052702;28;19930;-61
2023/08/15 11:24:23;;;;;;;;;;;;;;;25.60;66.89;101531.13;5051687;28;19927;-61
2023/08/15 11:26:48;;;;;;;;;;;;;;;25.50;67.16;101530.50;5042627;28;20083;-61
2023/08/15 11:29:14;;;;;;;;;;;;;;;25.32;65.84;101531.03;5054433;28;20050;-61
2023/08/15 11:31:39;;;;;;;;;;;;;;;25.04;67.80;101536.19;5058557;28;20059;-61
2023/08/15 11:34:05;;;;;;;;;;;;;;;24.94;67.04;101536.44;5056006;28;20070;-61
2023/08/15 11:36:30;;;;;;;;;;;;;;;24.82;66.86;101534.97;5059734;28;19905;-61
2023/08/15 11:38:59;;;;;;;;;;;;;;;24.73;68.08;101535.16;5055408;28;19909;-61
2023/08/15 11:41:24;;;;;;;;;;;;;;;24.85;67.01;101536.66;5059902;28;19917;-61
2023/08/15 11:43:49;;;;;;;;;;;;;;;24.87;65.47;101537.50;5053794;28;19916;-61
2023/08/15 11:46:15;;;;;;;;;;;;;;;24.71;67.44;101539.69;5045759;28;20212;-61
2023/08/15 11:48:42;;;;;;;;;;;;;;;24.35;68.48;101546.72;5046014;28;19960;-61
2023/08/15 11:51:08;;;;;;;;;;;;;;;24.10;69.41;101556.13;5052175;28;19916;-61
2023/08/15 11:53:33;;;;;;;;;;;;;;;23.94;70.25;101552.91;5059794;28;19913;-61
2023/08/15 11:55:58;;;;;;;;;;;;;;;23.78;70.91;101547.00;5065499;28;19928;-61
2023/08/15 11:58:23;;;;;;;;;;;;;;;23.71;71.49;101552.44;5065856;28;19917;-61
2023/08/15 12:00:50;;;;;;;;;;;;;;;23.56;72.41;101550.97;5063281;28;20066;-61
2023/08/15 12:03:15;;;;;;;;;;;;;;;23.55;72.26;101557.19;5065620;28;19915;-61
2023/08/15 12:05:43;;;;;;;;;;;;;;;23.49;73.09;101557.31;5065495;28;19905;-60
2023/08/15 12:08:08;;;;;;;;;;;;;;;23.51;73.54;101551.06;5065919;28;19905;-60
2023/08/15 12:10:34;;;;;;;;;;;;;;;23.71;73.12;101550.69;5064098;28;21052;-60
2023/08/15 12:13:01;;;;;;;;;;;;;;;23.90;73.81;101539.69;5055468;28;19948;-60
2023/08/15 12:15:26;;;;;;;;;;;;;;;24.30;73.77;101538.81;5027572;28;20779;-61
2023/08/15 12:17:52;;;;;;;;;;;;;;;24.79;72.34;101547.47;5063590;28;19920;-61
2023/08/15 12:20:17;;;;;;;;;;;;;;;25.20;70.57;101547.31;5064622;28;19946;-61
2023/08/15 12:22:42;;;;;;;;;;;;;;;25.48;68.84;101539.50;5059548;28;19913;-61
2023/08/15 12:25:08;;;;;;;;;;;;;;;25.77;66.91;101544.00;5055327;28;20200;-61
2023/08/15 12:27:34;;;;;;;;;;;;;;;25.68;66.03;101536.28;5064943;28;19920;-61
2023/08/15 12:29:59;;;;;;;;;;;;;;;25.67;64.29;101542.53;5056942;28;19932;-61
2023/08/15 12:32:25;;;;;;;;;;;;;;;25.73;65.14;101539.66;5050978;28;20143;-61
2023/08/15 12:34:50;;;;;;;;;;;;;;;25.85;66.63;101536.66;5055070;28;19932;-61